Airfield :







YOU CAN JOIN US ON...

 
LOGIN :

Register | Disclaimer

   EN    FR    IT 

 









Legend :    VFR   Marginal VFR   IFR   Intensive IFR   Very Intensive IFR
Visi :
Ceiling :
>= 8 km
>= 3000ft
5 to 8 km
1000 to 3000 ft
1500m to 5 km
500 to 1000 ft
800 to 1500m
200 to 500 ft
< 800m
< 200 ft
Symbols :   Thunderstorms  Fog  Heavy snow  Heavy precipitations  Wind > 20 kt






- Airport Elevation : 496 ft
- IATA code : YQX


CYQX - Gander

CURRENT METAR :
  • 290300Z 28006KT 15SM FEW028 SCT180 BKN240 M03/M07 A2989 RMK SC1AC3CI1 SLP131

EXPIRED METARs :
  • 290200Z 28008KT 15SM FEW028 SCT140 BKN190 BKN240 M03/M06 A2990 RMK SC2AS1AC3CI1 SLP136
  • 290100Z 27008KT 15SM FEW030 BKN150 BKN220 M02/M06 A2991 RMK SC1AS5CS1 SLP138

TAF TAF CYQX
Valid from the 29 at 00:00 until the 30 at 00:00 UTC


282338Z 2900/2924 31008KT P6SM BKN220
FM290200 28008KT P6SM FEW025 BKN160
BECMG 2904/2906 22008KT
FM290900 21008KT P6SM BKN100
FM291400 20010KT P6SM BKN050
FM291800 20010G20KT P6SM -SHRA SCT020 OVC040 RMK NXT FCST BY 290600Z
CZQX FIR / North America



MET'MAP, your aeronautical weather chart ! - Copyright ORBIFLY December 2007 - Disclaimer

ORBIFLY MET'MAP TEAM :

Programming & Development : Alexandra Zaïnal
Concept & original design : Baudouin d'Aumeries
Assistance for programming : Marc-Olivier Méhu
Technical & hardware support : Manuel Goepfert

Contact : metmap@orbifly.com




SOURCES & CREDITS :

   NOAA